Estación Meteorológica Peña el Pijo (Robertgarden) [ 06/25/18 14:04:38 CEST ]

Fecha Hora Presion(HPa) Temp (°C) Humedad % Rocio (°C) Viento ( m/s) Direccion Lluvia 1Hora(mm) Lluvia 24H(mm) LLuvia Total(mm)
2018-Jun-21 01:01:37 1012.700 14.4 65 7.9         266.25
2018-Jun-21 02:01:38 1012.400 12.9 69 7.4         266.25
2018-Jun-21 03:01:42 1012.100 12.1 71 7.0         266.25
2018-Jun-21 04:03:06 1011.900 11.0 75 6.8         266.25
2018-Jun-21 05:01:45 1011.500 10.2 77 6.3         266.25
2018-Jun-21 06:01:42 1011.600 9.6 79 6.1         266.25
2018-Jun-21 07:01:44 1011.700 9.5 81 6.4         266.25
2018-Jun-21 08:01:48 1012.300 12.6 84 9.9         266.25
2018-Jun-21 09:01:34 1012.400 18.4 68 12.4         266.25
2018-Jun-21 10:02:06 1012.200 23.0 52 12.6         266.25
2018-Jun-21 11:01:32 1011.900 26.9 42 12.9         266.25
2018-Jun-21 12:01:57 1011.900 29.6 35 12.4         266.25
2018-Jun-21 13:01:57 1011.800 30.8 31 11.7         266.25
2018-Jun-21 14:01:46 1011.300 31.4 29 11.2         266.25
2018-Jun-21 15:01:40 1011.100 31.1 27 9.7         266.25
2018-Jun-21 16:02:06 1011.100 32.9 25 10.1         266.25
2018-Jun-21 17:01:53 1011.000 32.1 25 9.4         266.25
2018-Jun-21 18:01:41 1010.800 30.3 26 8.4         266.25
2018-Jun-21 19:01:53 1010.500 28.9 27 7.8         266.25
2018-Jun-21 20:01:39 1011.100 26.8 30 7.8         266.25
2018-Jun-21 21:01:47 1011.400 23.4 32 5.7         266.25
2018-Jun-21 22:01:43 1011.600 21.0 36 5.3         266.25
2018-Jun-21 23:01:40 1012.700 17.4 48 6.2         266.25

Temperatura Máxima:32°    Temperatura Mínima:
Presión Máxima:1012.700 Hpa    Presión Mínima:1010.500 Hpa


Volver